Time;durP1;ratioP1;P1;durP2;ratioP2;P2;SDS_P1;SDS_P2;PMS_P1;PMS_P2;Temp;Humidity;BMP_temperature;BMP_pressure;BME280_temperature;BME280_humidity;BME280_pressure;Samples;Min_cycle;Max_cycle;Signal;HPM_P1;HPM_P2
2022/04/24 00:02:12;;;;;;;25.60;15.07;;;;;;;;;;4886574;29;20446;-94
2022/04/24 00:04:45;;;;;;;27.48;15.85;;;;;;;;;;4886892;29;20033;-94
2022/04/24 00:07:14;;;;;;;25.13;15.32;;;;;;;;;;4886299;29;20508;-95
2022/04/24 00:09:44;;;;;;;26.30;16.17;;;;;;;;;;4885719;29;20098;-91
2022/04/24 00:12:15;;;;;;;29.63;16.35;;;;;;;;;;4887124;29;20056;-90
2022/04/24 00:14:46;;;;;;;27.40;16.27;;;;;;;;;;4887245;29;20028;-93
2022/04/24 00:17:12;;;;;;;29.02;17.52;;;;;;;;;;4886657;29;20040;-90
2022/04/24 00:19:39;;;;;;;28.65;17.17;;;;;;;;;;4887485;29;20039;-91
2022/04/24 00:22:06;;;;;;;28.45;17.63;;;;;;;;;;4886237;29;20501;-88
2022/04/24 00:24:32;;;;;;;28.27;17.23;;;;;;;;;;4888006;29;20036;-93
2022/04/24 00:26:59;;;;;;;28.52;18.38;;;;;;;;;;4887253;29;20035;-90
2022/04/24 00:29:25;;;;;;;29.50;18.23;;;;;;;;;;4902922;29;20040;-89
2022/04/24 00:31:51;;;;;;;30.45;18.42;;;;;;;;;;4885975;29;20063;-91
2022/04/24 00:34:17;;;;;;;28.35;17.80;;;;;;;;;;4886085;29;20107;-94
2022/04/24 00:36:45;;;;;;;34.05;19.35;;;;;;;;;;4885832;29;20056;-93
2022/04/24 00:39:12;;;;;;;33.75;19.48;;;;;;;;;;4885832;29;20032;-95
2022/04/24 00:41:51;;;;;;;32.97;19.50;;;;;;;;;;4886303;29;20028;-90
2022/04/24 00:44:18;;;;;;;32.42;20.17;;;;;;;;;;4887702;29;20024;-94
2022/04/24 00:46:47;;;;;;;34.55;20.33;;;;;;;;;;4885219;29;20036;-93
2022/04/24 00:49:14;;;;;;;33.65;20.83;;;;;;;;;;4885393;29;20036;-90
2022/04/24 00:51:43;;;;;;;40.63;21.00;;;;;;;;;;4902743;29;20080;-91
2022/04/24 00:54:11;;;;;;;33.08;20.52;;;;;;;;;;4886443;29;20032;-90
2022/04/24 00:56:37;;;;;;;35.53;20.70;;;;;;;;;;4885677;29;20434;-91
2022/04/24 00:59:05;;;;;;;36.50;21.35;;;;;;;;;;4885468;29;20029;-95
2022/04/24 01:01:32;;;;;;;35.83;21.63;;;;;;;;;;4885983;29;20056;-93
2022/04/24 01:04:02;;;;;;;41.83;22.98;;;;;;;;;;4886539;29;20033;-89
2022/04/24 01:06:30;;;;;;;39.78;22.88;;;;;;;;;;4886028;29;20039;-92
2022/04/24 01:08:56;;;;;;;41.08;23.05;;;;;;;;;;4885599;29;20074;-93
2022/04/24 01:11:22;;;;;;;36.50;21.80;;;;;;;;;;4886232;29;20032;-94
2022/04/24 01:13:49;;;;;;;41.58;23.15;;;;;;;;;;4886141;29;20032;-94
2022/04/24 01:16:15;;;;;;;38.83;22.48;;;;;;;;;;4885315;29;20036;-90
2022/04/24 01:18:41;;;;;;;37.38;22.45;;;;;;;;;;4885902;29;20028;-90
2022/04/24 01:21:08;;;;;;;36.58;21.17;;;;;;;;;;4885195;29;20115;-94
2022/04/24 01:23:41;;;;;;;35.85;20.00;;;;;;;;;;4886538;29;20124;-91
2022/04/24 01:26:07;;;;;;;37.42;20.10;;;;;;;;;;4875843;29;20056;-90
2022/04/24 01:28:33;;;;;;;37.30;22.45;;;;;;;;;;4885363;29;20041;-93
2022/04/24 01:34:03;;;;;;;37.40;21.58;;;;;;;;;;4901725;29;20032;-94
2022/04/24 01:36:29;;;;;;;34.13;19.58;;;;;;;;;;4886765;29;20214;-91
2022/04/24 01:38:55;;;;;;;38.25;21.58;;;;;;;;;;4884886;29;20037;-92
2022/04/24 01:41:21;;;;;;;36.65;21.17;;;;;;;;;;4885316;29;20024;-91
2022/04/24 01:43:48;;;;;;;39.13;21.38;;;;;;;;;;4884883;29;20446;-92
2022/04/24 01:46:18;;;;;;;36.47;21.77;;;;;;;;;;4885367;29;20080;-95
2022/04/24 01:48:44;;;;;;;40.15;22.65;;;;;;;;;;4884970;29;20068;-91
2022/04/24 01:51:11;;;;;;;36.38;19.60;;;;;;;;;;4885126;29;20089;-91
2022/04/24 01:53:37;;;;;;;38.00;20.70;;;;;;;;;;4885226;29;20035;-94
2022/04/24 01:56:05;;;;;;;34.35;20.23;;;;;;;;;;4884491;29;20033;-94
2022/04/24 01:58:31;;;;;;;34.45;19.40;;;;;;;;;;4885597;29;20037;-91
2022/04/24 02:00:58;;;;;;;36.83;21.40;;;;;;;;;;4883202;29;20021;-89
2022/04/24 02:03:27;;;;;;;40.63;23.27;;;;;;;;;;4884355;29;20394;-91
2022/04/24 02:05:53;;;;;;;37.60;20.98;;;;;;;;;;4884776;29;20119;-91
2022/04/24 02:08:19;;;;;;;36.97;22.10;;;;;;;;;;4884341;29;20053;-91
2022/04/24 02:10:45;;;;;;;41.25;21.45;;;;;;;;;;4884466;29;20603;-91
2022/04/24 02:13:12;;;;;;;38.05;21.02;;;;;;;;;;4884668;29;20029;-94
2022/04/24 02:15:38;;;;;;;37.78;21.35;;;;;;;;;;4884827;29;20021;-94
2022/04/24 02:18:04;;;;;;;38.55;21.40;;;;;;;;;;4893056;29;20028;-91
2022/04/24 02:20:31;;;;;;;39.28;22.33;;;;;;;;;;4894453;29;20033;-91
2022/04/24 02:22:57;;;;;;;40.08;22.67;;;;;;;;;;4903096;29;20060;-91
2022/04/24 02:25:27;;;;;;;42.67;22.77;;;;;;;;;;4884245;29;20095;-93
2022/04/24 02:27:54;;;;;;;41.35;22.55;;;;;;;;;;4883807;29;20134;-95
2022/04/24 02:30:21;;;;;;;38.72;21.13;;;;;;;;;;4883998;29;20035;-90
2022/04/24 02:32:47;;;;;;;42.38;21.63;;;;;;;;;;4883311;29;20032;-90
2022/04/24 02:35:13;;;;;;;42.55;21.63;;;;;;;;;;4884773;29;20040;-90
2022/04/24 02:37:39;;;;;;;43.00;23.10;;;;;;;;;;4883931;29;20116;-92
2022/04/24 02:40:09;;;;;;;40.60;22.25;;;;;;;;;;4883992;29;20048;-93
2022/04/24 02:42:36;;;;;;;43.47;22.17;;;;;;;;;;4883866;29;20054;-91
2022/04/24 02:45:03;;;;;;;40.30;22.58;;;;;;;;;;4901144;29;20103;-90
2022/04/24 02:47:30;;;;;;;45.33;22.85;;;;;;;;;;4884425;29;20032;-93
2022/04/24 02:49:56;;;;;;;37.47;21.08;;;;;;;;;;4883727;29;20040;-90
2022/04/24 02:52:22;;;;;;;48.42;20.20;;;;;;;;;;4883676;29;20020;-93
2022/04/24 02:54:48;;;;;;;36.85;19.60;;;;;;;;;;4883915;29;20036;-90
2022/04/24 02:57:14;;;;;;;39.50;21.30;;;;;;;;;;4885297;29;20044;-90
2022/04/24 02:59:50;;;;;;;33.70;19.38;;;;;;;;;;4883770;29;20032;-92
2022/04/24 03:02:17;;;;;;;34.95;20.13;;;;;;;;;;4884008;29;20111;-90
2022/04/24 03:04:45;;;;;;;36.53;18.70;;;;;;;;;;4882730;29;20490;-93
2022/04/24 03:07:12;;;;;;;37.72;22.05;;;;;;;;;;4899227;29;20063;-89
2022/04/24 03:09:39;;;;;;;41.35;22.10;;;;;;;;;;4883267;29;20123;-89
2022/04/24 03:12:05;;;;;;;44.72;22.13;;;;;;;;;;4883696;29;20029;-93
2022/04/24 03:14:32;;;;;;;40.58;22.38;;;;;;;;;;4883837;29;20405;-90
2022/04/24 03:16:58;;;;;;;44.78;24.13;;;;;;;;;;4883498;29;20063;-91
2022/04/24 03:19:24;;;;;;;43.53;23.05;;;;;;;;;;4883184;29;20035;-90
2022/04/24 03:21:50;;;;;;;44.85;23.25;;;;;;;;;;4883237;29;20025;-92
2022/04/24 03:24:16;;;;;;;47.38;22.98;;;;;;;;;;4883775;29;20044;-90
2022/04/24 03:26:43;;;;;;;42.70;21.70;;;;;;;;;;4883098;29;20028;-90
2022/04/24 03:29:09;;;;;;;46.22;23.45;;;;;;;;;;4883205;29;20037;-90
2022/04/24 03:31:35;;;;;;;40.60;21.55;;;;;;;;;;4883773;29;20025;-94
2022/04/24 03:34:02;;;;;;;38.78;20.95;;;;;;;;;;4883774;29;20033;-90
2022/04/24 03:36:28;;;;;;;41.63;23.05;;;;;;;;;;4882616;29;20040;-89
2022/04/24 03:38:54;;;;;;;39.78;21.58;;;;;;;;;;4883131;29;20029;-90
2022/04/24 03:41:20;;;;;;;45.55;23.10;;;;;;;;;;4883488;29;20036;-91
2022/04/24 03:43:46;;;;;;;42.03;22.45;;;;;;;;;;4900177;29;20025;-90
2022/04/24 03:46:13;;;;;;;38.78;21.13;;;;;;;;;;4883173;29;20032;-94
2022/04/24 03:48:39;;;;;;;36.30;20.73;;;;;;;;;;4882793;29;20067;-91
2022/04/24 03:51:07;;;;;;;39.30;21.80;;;;;;;;;;4883869;29;20028;-94
2022/04/24 03:53:33;;;;;;;40.33;21.85;;;;;;;;;;4883285;29;20037;-91
2022/04/24 03:56:00;;;;;;;37.70;21.98;;;;;;;;;;4883526;29;20033;-94
2022/04/24 03:58:26;;;;;;;47.28;23.50;;;;;;;;;;4882923;29;20034;-91
2022/04/24 04:00:52;;;;;;;40.50;23.17;;;;;;;;;;4882896;29;20036;-92
2022/04/24 04:03:18;;;;;;;39.55;22.55;;;;;;;;;;4883229;29;20486;-90
2022/04/24 04:05:48;;;;;;;38.92;22.17;;;;;;;;;;4883128;29;20024;-90
2022/04/24 04:08:14;;;;;;;41.38;22.15;;;;;;;;;;4881890;29;20140;-90
2022/04/24 04:10:40;;;;;;;39.67;21.42;;;;;;;;;;4899598;29;20025;-93
2022/04/24 04:13:07;;;;;;;39.83;21.80;;;;;;;;;;4883293;29;20029;-95
2022/04/24 04:15:33;;;;;;;38.72;22.05;;;;;;;;;;4883164;29;20115;-90
2022/04/24 04:17:59;;;;;;;37.92;21.73;;;;;;;;;;4883634;29;20177;-92
2022/04/24 04:20:26;;;;;;;39.30;21.60;;;;;;;;;;4882625;29;20029;-90
2022/04/24 04:22:52;;;;;;;42.25;21.65;;;;;;;;;;4884709;29;20133;-92
2022/04/24 04:25:19;;;;;;;44.25;22.52;;;;;;;;;;4886333;29;20024;-90
2022/04/24 04:28:03;;;;;;;39.13;21.90;;;;;;;;;;4886290;29;20064;-94
2022/04/24 04:30:29;;;;;;;37.58;21.05;;;;;;;;;;4886939;29;20025;-90
2022/04/24 04:32:56;;;;;;;37.80;20.83;;;;;;;;;;4886421;29;20028;-90
2022/04/24 04:35:27;;;;;;;38.85;21.30;;;;;;;;;;4886827;29;20024;-93
2022/04/24 04:37:54;;;;;;;36.50;19.73;;;;;;;;;;4886649;29;20088;-94
2022/04/24 04:40:20;;;;;;;31.85;18.20;;;;;;;;;;4886198;29;20469;-91
2022/04/24 04:42:50;;;;;;;33.60;18.92;;;;;;;;;;4886226;29;20061;-90
2022/04/24 04:45:20;;;;;;;32.83;18.00;;;;;;;;;;4885546;29;20024;-90
2022/04/24 04:47:52;;;;;;;31.98;17.75;;;;;;;;;;4902695;29;20096;-95
2022/04/24 04:50:19;;;;;;;31.40;17.47;;;;;;;;;;4886363;29;20036;-91
2022/04/24 04:52:45;;;;;;;31.00;17.65;;;;;;;;;;4886054;29;20029;-92
2022/04/24 04:55:12;;;;;;;33.08;18.10;;;;;;;;;;4887375;29;20037;-88
2022/04/24 04:57:38;;;;;;;27.40;15.13;;;;;;;;;;4907119;29;20052;-93
2022/04/24 05:00:05;;;;;;;28.77;16.63;;;;;;;;;;4887680;29;20115;-90
2022/04/24 05:25:18;;;;;;;18.38;8.10;;;;;;;;;;4911816;29;20486;-96
2022/04/24 06:29:58;;;;;;;10.77;6.13;;;;;;;;;;5770409;23;20027;-94
2022/04/24 06:35:06;;;;;;;9.68;5.50;;;;;;;;;;5259515;23;20413;-94
2022/04/24 06:37:59;;;;;;;10.77;5.28;;;;;;;;;;4949541;29;20130;-95
2022/04/24 06:58:08;;;;;;;5.53;2.92;;;;;;;;;;3112707;23;20026;-93
2022/04/24 07:00:36;;;;;;;9.35;4.25;;;;;;;;;;4908145;29;20048;-95
2022/04/24 07:03:20;;;;;;;9.93;4.88;;;;;;;;;;4915094;29;20028;-96
2022/04/24 07:05:47;;;;;;;10.10;5.32;;;;;;;;;;4992180;23;20023;-94
2022/04/24 07:10:52;;;;;;;10.52;4.53;;;;;;;;;;4945979;28;20048;-94
2022/04/24 07:13:24;;;;;;;6.13;2.95;;;;;;;;;;4914897;29;20405;-93
2022/04/24 07:15:51;;;;;;;15.55;3.13;;;;;;;;;;4925590;29;20047;-91
2022/04/24 07:18:27;;;;;;;4.43;2.08;;;;;;;;;;4927920;29;20032;-93
2022/04/24 07:20:55;;;;;;;1.70;0.98;;;;;;;;;;4943527;29;20031;-92
2022/04/24 07:23:29;;;;;;;2.45;0.95;;;;;;;;;;4909438;29;20039;-92
2022/04/24 07:29:13;;;;;;;3.63;0.70;;;;;;;;;;5520310;23;20327;-94
2022/04/24 07:31:56;;;;;;;5.32;0.80;;;;;;;;;;5519428;23;20043;31
2022/04/24 07:37:17;;;;;;;1.85;0.77;;;;;;;;;;4964034;28;20047;-96
2022/04/24 07:40:32;;;;;;;1.48;0.60;;;;;;;;;;5055162;23;20047;-96
2022/04/24 07:46:14;;;;;;;4.95;0.88;;;;;;;;;;5063416;23;20059;-92
2022/04/24 07:51:37;;;;;;;1.13;0.47;;;;;;;;;;5758636;23;20018;-91
2022/04/24 07:54:10;;;;;;;2.03;0.82;;;;;;;;;;5627134;23;20640;31
2022/04/24 08:08:10;;;;;;;1.65;0.65;;;;;;;;;;5928470;23;20227;-92
2022/04/24 08:10:49;;;;;;;;;;;;;;;;;;5215748;23;20050;-92
2022/04/24 08:19:28;;;;;;;3.83;0.80;;;;;;;;;;5442478;23;20083;31
2022/04/24 08:24:30;;;;;;;4.07;1.15;;;;;;;;;;5059260;23;20046;-94
2022/04/24 08:27:06;;;;;;;5.90;1.27;;;;;;;;;;5016903;23;20058;-91
2022/04/24 08:29:35;;;;;;;4.47;1.20;;;;;;;;;;4955575;28;20030;-92
2022/04/24 08:32:26;;;;;;;4.78;1.08;;;;;;;;;;5040763;23;20055;-92
2022/04/24 08:53:17;;;;;;;2.00;0.80;;;;;;;;;;5094799;23;20074;31
2022/04/24 09:12:31;;;;;;;3.72;0.98;;;;;;;;;;4945986;28;20099;-96
2022/04/24 09:14:58;;;;;;;4.55;0.93;;;;;;;;;;4950508;28;20044;-95
2022/04/24 09:17:26;;;;;;;2.83;0.90;;;;;;;;;;4925795;29;20020;-92
2022/04/24 09:19:52;;;;;;;1.48;0.50;;;;;;;;;;4924794;29;20028;-94
2022/04/24 09:22:19;;;;;;;2.30;0.68;;;;;;;;;;4923739;29;20020;-93
2022/04/24 09:27:35;;;;;;;2.95;0.95;;;;;;;;;;4942494;29;20032;-94
2022/04/24 09:30:03;;;;;;;3.63;1.00;;;;;;;;;;4927566;29;20040;-92
2022/04/24 09:42:20;;;;;;;4.78;1.05;;;;;;;;;;4938869;29;20114;-96
2022/04/24 09:44:50;;;;;;;4.13;1.13;;;;;;;;;;4923080;29;20032;-92
2022/04/24 09:47:17;;;;;;;2.67;0.85;;;;;;;;;;4923677;29;20020;-92
2022/04/24 09:52:28;;;;;;;2.85;0.70;;;;;;;;;;4992358;23;20062;-95
2022/04/24 09:54:55;;;;;;;4.28;0.88;;;;;;;;;;4925261;29;20087;-92
2022/04/24 09:57:40;;;;;;;7.03;0.60;;;;;;;;;;4929608;29;20072;-94
2022/04/24 10:00:06;;;;;;;3.00;0.70;;;;;;;;;;4964175;29;20063;-92
2022/04/24 14:16:07;;;;;;;2.63;0.47;;;;;;;;;;6371358;22;20083;-83
2022/04/24 14:18:36;;;;;;;1.02;0.25;;;;;;;;;;6371457;22;20003;-84
2022/04/24 14:21:03;;;;;;;1.73;0.30;;;;;;;;;;6343675;22;20010;-83
2022/04/24 14:23:29;;;;;;;2.83;0.50;;;;;;;;;;6371183;22;20416;-90
2022/04/24 14:25:55;;;;;;;1.33;0.20;;;;;;;;;;6371670;22;19994;-88
2022/04/24 14:28:28;;;;;;;1.40;0.30;;;;;;;;;;6343393;22;20006;-85
2022/04/24 14:33:56;;;;;;;1.48;0.30;;;;;;;;;;6239110;22;20016;-88
2022/04/24 14:37:05;;;;;;;1.02;0.40;;;;;;;;;;6242627;23;20072;-84
2022/04/24 14:39:31;;;;;;;1.20;0.50;;;;;;;;;;6239996;23;20064;-86
2022/04/24 15:25:00;;;;;;;1.33;0.40;;;;;;;;;;6212008;23;20444;-87
2022/04/24 15:28:03;;;;;;;0.93;0.30;;;;;;;;;;6212392;23;20031;-87
2022/04/24 15:55:59;;;;;;;2.17;0.52;;;;;;;;;;6241838;22;20023;-88
2022/04/24 17:14:35;;;;;;;6.40;2.28;;;;;;;;;;6320604;22;20049;-81
2022/04/24 17:17:03;;;;;;;5.65;2.08;;;;;;;;;;6184727;22;20023;-86
2022/04/24 17:19:30;;;;;;;7.60;1.88;;;;;;;;;;6183296;22;20433;-82
2022/04/24 17:22:00;;;;;;;6.85;2.08;;;;;;;;;;6185950;23;20092;-83
2022/04/24 17:24:26;;;;;;;9.68;1.90;;;;;;;;;;6212196;23;20000;-82
2022/04/24 17:26:55;;;;;;;6.55;1.90;;;;;;;;;;6185775;23;20429;-85
2022/04/24 17:29:22;;;;;;;3.67;1.50;;;;;;;;;;6212714;23;20003;-84
2022/04/24 17:31:48;;;;;;;4.88;1.55;;;;;;;;;;6185480;23;20004;-83
2022/04/24 17:34:15;;;;;;;2.20;1.40;;;;;;;;;;6185627;23;20104;-83
2022/04/24 17:36:41;;;;;;;3.78;1.50;;;;;;;;;;6211925;23;20452;-83
2022/04/24 17:39:11;;;;;;;3.33;1.40;;;;;;;;;;6185834;23;20445;-85
2022/04/24 17:41:37;;;;;;;4.43;1.50;;;;;;;;;;6185723;23;20420;-83
2022/04/24 17:44:13;;;;;;;6.78;1.65;;;;;;;;;;6185128;23;20009;-83
2022/04/24 17:46:39;;;;;;;9.02;1.60;;;;;;;;;;6185846;23;20004;-84
2022/04/24 17:49:09;;;;;;;7.50;1.70;;;;;;;;;;6185069;23;20004;-87
2022/04/24 17:51:51;;;;;;;5.20;1.50;;;;;;;;;;6184641;23;20092;-85
2022/04/24 17:54:17;;;;;;;10.48;2.05;;;;;;;;;;6183993;23;20445;-62
2022/04/24 17:56:43;;;;;;;5.88;2.50;;;;;;;;;;6211818;23;20068;-63
2022/04/24 17:59:10;;;;;;;6.57;2.83;;;;;;;;;;6211853;23;20007;-62
2022/04/24 18:01:36;;;;;;;7.05;2.90;;;;;;;;;;6185272;23;20004;-61
2022/04/24 18:04:02;;;;;;;7.20;3.05;;;;;;;;;;6211558;23;20005;-63
2022/04/24 18:06:29;;;;;;;5.32;2.33;;;;;;;;;;6211748;23;20049;-63
2022/04/24 18:08:56;;;;;;;6.18;2.35;;;;;;;;;;6185336;23;20008;-63
2022/04/24 18:11:22;;;;;;;4.32;1.90;;;;;;;;;;6212041;23;20011;-64
2022/04/24 18:13:50;;;;;;;3.42;1.70;;;;;;;;;;6185110;23;20017;-63
2022/04/24 18:16:16;;;;;;;5.28;1.75;;;;;;;;;;6211179;23;20036;-66
2022/04/24 18:18:44;;;;;;;3.15;1.27;;;;;;;;;;6159969;23;20008;-63
2022/04/24 18:21:12;;;;;;;3.97;1.63;;;;;;;;;;6211527;23;20001;-66
2022/04/24 18:23:40;;;;;;;4.13;1.35;;;;;;;;;;6185115;23;20020;-66
2022/04/24 18:26:07;;;;;;;2.30;1.13;;;;;;;;;;6184858;23;20005;-66
2022/04/24 18:28:33;;;;;;;2.67;1.15;;;;;;;;;;6185057;23;20456;-63
2022/04/24 18:30:59;;;;;;;2.42;1.02;;;;;;;;;;6185160;23;20083;-67
2022/04/24 18:33:25;;;;;;;2.70;1.02;;;;;;;;;;6184633;23;20082;-66
2022/04/24 18:38:39;;;;;;;2.10;1.02;;;;;;;;;;6212340;23;20012;-85
2022/04/24 18:41:06;;;;;;;2.70;1.30;;;;;;;;;;6185986;22;20499;-86
2022/04/24 18:43:33;;;;;;;3.70;1.13;;;;;;;;;;6186100;23;20437;-86
2022/04/24 18:45:59;;;;;;;3.35;1.38;;;;;;;;;;6186359;22;20005;-87
2022/04/24 18:48:29;;;;;;;1.88;0.70;;;;;;;;;;6212652;23;20011;-86
2022/04/24 18:50:56;;;;;;;1.75;0.75;;;;;;;;;;6186181;22;20043;-81
2022/04/24 18:53:22;;;;;;;1.80;0.80;;;;;;;;;;6186076;22;20013;-85
2022/04/24 18:55:48;;;;;;;1.13;0.50;;;;;;;;;;6186465;22;20066;-82
2022/04/24 18:58:15;;;;;;;1.60;0.88;;;;;;;;;;6186020;22;20028;-85
2022/04/24 19:00:41;;;;;;;2.05;0.82;;;;;;;;;;6185962;22;20036;-85
2022/04/24 19:03:07;;;;;;;2.10;0.80;;;;;;;;;;6212493;23;20004;-84
2022/04/24 19:08:18;;;;;;;1.60;0.90;;;;;;;;;;6212167;23;20030;-82
2022/04/24 19:13:35;;;;;;;1.90;0.80;;;;;;;;;;6211921;23;20065;-81
2022/04/24 19:16:01;;;;;;;2.92;0.90;;;;;;;;;;6185817;23;20093;-88
2022/04/24 19:18:31;;;;;;;2.45;1.33;;;;;;;;;;6212445;23;20046;-85
2022/04/24 19:20:57;;;;;;;4.15;1.50;;;;;;;;;;6186617;22;20446;-84
2022/04/24 19:23:23;;;;;;;2.70;1.48;;;;;;;;;;6186049;22;20058;-87
2022/04/24 19:25:49;;;;;;;3.33;1.42;;;;;;;;;;6186076;22;20041;-84
2022/04/24 19:28:16;;;;;;;5.05;2.00;;;;;;;;;;6186172;23;20005;-89
2022/04/24 19:30:42;;;;;;;8.02;1.65;;;;;;;;;;6185605;22;20036;-81
2022/04/24 19:33:08;;;;;;;2.13;1.10;;;;;;;;;;6214769;23;21928;-83
2022/04/24 19:35:34;;;;;;;2.65;1.00;;;;;;;;;;6188759;22;20019;-82
2022/04/24 19:38:01;;;;;;;2.58;1.00;;;;;;;;;;6185576;23;20019;-85
2022/04/24 19:40:27;;;;;;;1.92;1.10;;;;;;;;;;6186252;22;20005;-87
2022/04/24 19:42:53;;;;;;;2.55;1.30;;;;;;;;;;6185542;22;20489;-83
2022/04/24 19:45:20;;;;;;;3.00;1.25;;;;;;;;;;6185295;23;20005;-85
2022/04/24 19:50:31;;;;;;;1.83;0.80;;;;;;;;;;6216866;23;20019;-80
2022/04/24 19:52:57;;;;;;;1.58;0.80;;;;;;;;;;6192793;22;20005;-80
2022/04/24 19:55:25;;;;;;;1.80;0.75;;;;;;;;;;6213359;23;20005;-85
2022/04/24 19:57:52;;;;;;;2.58;0.80;;;;;;;;;;6186503;23;20040;-86
2022/04/24 20:00:18;;;;;;;1.73;0.70;;;;;;;;;;6186448;22;20329;-84
2022/04/24 20:02:45;;;;;;;1.05;0.50;;;;;;;;;;6187002;22;20098;-82
2022/04/24 20:05:11;;;;;;;2.05;0.43;;;;;;;;;;6186621;22;20084;-87
2022/04/24 20:07:37;;;;;;;1.17;0.57;;;;;;;;;;6213090;23;20004;-82
2022/04/24 20:10:07;;;;;;;1.15;0.52;;;;;;;;;;6186589;22;20004;-83
2022/04/24 20:12:34;;;;;;;1.60;0.60;;;;;;;;;;6186733;22;20009;-83
2022/04/24 20:15:00;;;;;;;1.73;0.60;;;;;;;;;;6186463;23;20138;-85
2022/04/24 20:17:26;;;;;;;1.30;0.70;;;;;;;;;;6186527;22;20433;-83
2022/04/24 20:19:52;;;;;;;2.03;0.50;;;;;;;;;;6186404;22;20062;-86
2022/04/24 20:22:18;;;;;;;1.83;0.60;;;;;;;;;;6186694;22;20066;-82
2022/04/24 20:24:44;;;;;;;3.22;1.00;;;;;;;;;;6187310;22;20008;-82
2022/04/24 20:27:11;;;;;;;0.88;0.32;;;;;;;;;;6187033;22;20024;-87
2022/04/24 20:29:40;;;;;;;2.10;0.50;;;;;;;;;;6186405;22;20015;-83
2022/04/24 20:32:06;;;;;;;1.20;0.57;;;;;;;;;;6186991;22;20382;-87
2022/04/24 20:34:33;;;;;;;1.83;0.70;;;;;;;;;;6212933;23;20085;-81
2022/04/24 20:36:59;;;;;;;1.75;0.63;;;;;;;;;;6213403;23;19996;-84
2022/04/24 20:39:43;;;;;;;1.30;0.50;;;;;;;;;;6186829;22;20009;-83
2022/04/24 20:42:09;;;;;;;1.88;0.90;;;;;;;;;;6186551;22;20375;-85
2022/04/24 20:44:35;;;;;;;2.00;0.75;;;;;;;;;;6213097;23;20004;-83
2022/04/24 20:47:01;;;;;;;2.05;0.80;;;;;;;;;;6186007;22;20024;-86
2022/04/24 20:49:28;;;;;;;1.85;0.60;;;;;;;;;;6212772;23;20004;-82
2022/04/24 20:51:54;;;;;;;2.22;0.60;;;;;;;;;;6186242;22;20001;-84
2022/04/24 20:54:20;;;;;;;2.10;0.60;;;;;;;;;;6212743;23;20016;-83
2022/04/24 20:56:46;;;;;;;1.75;0.50;;;;;;;;;;6186158;23;20001;-81
2022/04/24 20:59:13;;;;;;;3.03;0.60;;;;;;;;;;6186383;23;20146;-82
2022/04/24 21:01:39;;;;;;;1.70;0.70;;;;;;;;;;6186439;22;20039;-84
2022/04/24 21:04:05;;;;;;;1.73;0.60;;;;;;;;;;6212688;23;20315;-82
2022/04/24 21:06:31;;;;;;;1.85;0.60;;;;;;;;;;6186471;22;20005;-87
2022/04/24 21:08:57;;;;;;;1.15;0.60;;;;;;;;;;6212684;23;20299;-82
2022/04/24 21:11:24;;;;;;;1.40;0.50;;;;;;;;;;6213295;23;19997;-86
2022/04/24 21:13:50;;;;;;;1.83;0.80;;;;;;;;;;6187615;22;20145;-83
2022/04/24 21:16:16;;;;;;;2.75;1.25;;;;;;;;;;6186304;22;20065;-78
2022/04/24 21:18:42;;;;;;;7.93;2.80;;;;;;;;;;6212776;23;20009;-82
2022/04/24 21:21:08;;;;;;;3.75;1.60;;;;;;;;;;6187044;22;20491;-80
2022/04/24 21:23:35;;;;;;;3.38;1.58;;;;;;;;;;6189004;22;20022;-81
2022/04/24 21:26:01;;;;;;;6.55;2.33;;;;;;;;;;6212854;23;20001;-83
2022/04/24 21:28:28;;;;;;;5.30;1.80;;;;;;;;;;6212995;23;19996;-85
2022/04/24 21:30:54;;;;;;;5.40;2.28;;;;;;;;;;6213347;23;20073;-82
2022/04/24 21:33:20;;;;;;;4.20;1.80;;;;;;;;;;6213056;23;20001;-82
2022/04/24 21:35:47;;;;;;;4.55;1.92;;;;;;;;;;6213418;23;20005;-83
2022/04/24 21:38:13;;;;;;;7.53;3.28;;;;;;;;;;6212718;23;19996;-82
2022/04/24 21:40:39;;;;;;;6.90;3.05;;;;;;;;;;6212671;23;20035;-82
2022/04/24 21:43:06;;;;;;;4.07;1.60;;;;;;;;;;6186253;22;20088;-80
2022/04/24 21:45:32;;;;;;;3.30;1.48;;;;;;;;;;6186198;22;20005;-84
2022/04/24 21:47:58;;;;;;;3.58;1.67;;;;;;;;;;6186135;22;20334;-83
2022/04/24 21:50:24;;;;;;;6.55;2.28;;;;;;;;;;6186326;22;20008;-82
2022/04/24 21:52:50;;;;;;;8.48;3.30;;;;;;;;;;6212620;23;20004;-86
2022/04/24 21:55:17;;;;;;;4.60;2.50;;;;;;;;;;6212360;23;20483;-82
2022/04/24 21:57:43;;;;;;;6.72;2.28;;;;;;;;;;6212213;23;20057;-85
2022/04/24 22:00:29;;;;;;;4.43;1.70;;;;;;;;;;6186326;22;20009;-85
2022/04/24 22:05:41;;;;;;;4.53;1.45;;;;;;;;;;6212832;23;20511;-88
2022/04/24 22:08:07;;;;;;;3.22;2.10;;;;;;;;;;6185390;23;20001;-81
2022/04/24 22:10:34;;;;;;;2.97;1.67;;;;;;;;;;6185965;22;20016;-80
2022/04/24 22:13:00;;;;;;;3.28;1.70;;;;;;;;;;6212330;23;20058;-85
2022/04/24 22:15:28;;;;;;;3.03;1.80;;;;;;;;;;6221343;22;20097;-80
2022/04/24 22:17:55;;;;;;;3.90;2.05;;;;;;;;;;6340285;22;20021;-82
2022/04/24 22:20:21;;;;;;;3.13;1.75;;;;;;;;;;6312801;22;20081;-86
2022/04/24 22:25:33;;;;;;;4.18;2.00;;;;;;;;;;6340424;22;20085;-87
2022/04/24 22:28:00;;;;;;;3.72;2.05;;;;;;;;;;6312609;22;20014;-82
2022/04/24 22:30:26;;;;;;;3.50;2.05;;;;;;;;;;6339778;22;20006;-85
2022/04/24 22:32:53;;;;;;;2.63;1.70;;;;;;;;;;6312731;22;20007;-83
2022/04/24 22:35:21;;;;;;;3.72;2.08;;;;;;;;;;6312385;22;20314;-83
2022/04/24 22:37:47;;;;;;;4.57;2.28;;;;;;;;;;6312409;22;20086;-84
2022/04/24 22:40:14;;;;;;;4.75;2.22;;;;;;;;;;6311842;22;20010;-81
2022/04/24 22:42:40;;;;;;;3.80;1.88;;;;;;;;;;6340025;22;20019;-85
2022/04/24 22:45:07;;;;;;;3.90;2.20;;;;;;;;;;6312074;22;20003;-83
2022/04/24 22:47:34;;;;;;;6.43;2.33;;;;;;;;;;6312470;22;20373;-85
2022/04/24 22:50:00;;;;;;;4.90;2.40;;;;;;;;;;6340240;22;20003;-86
2022/04/24 22:52:26;;;;;;;4.78;2.15;;;;;;;;;;6311994;22;20047;-87
2022/04/24 22:54:52;;;;;;;4.25;2.25;;;;;;;;;;6339813;22;20006;-83
2022/04/24 22:57:18;;;;;;;4.95;2.10;;;;;;;;;;6312062;22;20373;-86
2022/04/24 22:59:44;;;;;;;4.38;2.00;;;;;;;;;;6312036;22;20458;-81
2022/04/24 23:02:11;;;;;;;5.03;2.08;;;;;;;;;;6339498;22;20022;-83
2022/04/24 23:04:37;;;;;;;4.07;1.83;;;;;;;;;;6312189;22;20427;-86
2022/04/24 23:07:04;;;;;;;3.13;1.40;;;;;;;;;;6311962;22;20002;-85
2022/04/24 23:09:31;;;;;;;2.20;1.13;;;;;;;;;;6339969;22;20059;-83
2022/04/24 23:11:57;;;;;;;4.28;1.27;;;;;;;;;;6340523;22;19999;-81
2022/04/24 23:14:23;;;;;;;2.70;1.38;;;;;;;;;;6311577;22;20011;-83
2022/04/24 23:16:49;;;;;;;2.63;1.38;;;;;;;;;;6230877;22;20086;-84
2022/04/24 23:19:16;;;;;;;2.38;1.20;;;;;;;;;;6185000;22;20047;-85
2022/04/24 23:21:52;;;;;;;2.40;1.23;;;;;;;;;;6186070;22;20402;-84
2022/04/24 23:24:29;;;;;;;4.80;1.40;;;;;;;;;;6186153;22;20011;-83
2022/04/24 23:26:56;;;;;;;2.75;1.30;;;;;;;;;;6185763;22;20310;-84
2022/04/24 23:29:22;;;;;;;5.20;2.63;;;;;;;;;;6185352;22;20080;-84
2022/04/24 23:31:49;;;;;;;3.13;1.70;;;;;;;;;;6185697;22;20011;-86
2022/04/24 23:34:16;;;;;;;4.85;2.10;;;;;;;;;;6185320;22;20023;-84
2022/04/24 23:36:42;;;;;;;4.32;2.30;;;;;;;;;;6211489;23;20020;-84
2022/04/24 23:39:09;;;;;;;5.93;2.42;;;;;;;;;;6185395;22;20005;-82
2022/04/24 23:41:36;;;;;;;4.10;2.22;;;;;;;;;;6185112;22;20011;-87
2022/04/24 23:44:07;;;;;;;3.88;2.00;;;;;;;;;;6185067;22;20000;-81
2022/04/24 23:46:33;;;;;;;4.45;2.42;;;;;;;;;;6185164;23;20005;-84
2022/04/24 23:49:00;;;;;;;3.70;1.73;;;;;;;;;;6185218;22;20444;-81
2022/04/24 23:51:26;;;;;;;3.42;1.73;;;;;;;;;;6211475;23;20039;-84
2022/04/24 23:53:52;;;;;;;4.65;2.05;;;;;;;;;;6185147;22;20096;-83
2022/04/24 23:56:18;;;;;;;4.47;2.15;;;;;;;;;;6185058;23;20005;-80
2022/04/24 23:58:44;;;;;;;4.78;2.10;;;;;;;;;;6211376;23;20005;-85
